M I D A S
Marine Information and Data Acquisition System
Tripno 1889 of the Zeeleeuw from 2010-05-28 06:39:10 to 2010-05-28 13:46:39
Back to CruiseResearch ActivitiesStationsMapUnderway DataData graphs

EquipmentUnitsComments
TimeDGPSUTC
LatitudeDGPSDM.mWGS84
LongitudeDGPSDM.mWGS84
SpeedMeteo Stationm/sRelative wind speed
DirectionMeteo StationdegRelative wind direction
TemperatureMeteo Stationdeg CelciusAir temperature
PressureMeteo StationPaAtmospheric pressure
HumidityMeteo Station%Relative humidity
Missing or incorrect values are displayed as -999
Metereological data collected by the RV Zeeleeuw from 2010-05-28 06:24:11 to 2010-05-28 13:54:46
Time Latitude Longitude Speed Direction Temperature Pressure Humidity
2010-05-28 06:25 51°13.683 2°55.878 4.6 38 12.3 101230 34
2010-05-28 06:26 51°13.692 2°55.776 3.4 31 12.3 101230 34
2010-05-28 06:27 51°13.698 2°55.748 1.8 267 12.4 101240 35
2010-05-28 06:28 51°13.697 2°55.733 3.6 261 12.5 101250 36
2010-05-28 06:29 51°13.746 2°55.711 4.2 322 12.6 101240 36
2010-05-28 06:30 51°13.863 2°55.611 5.7 322 12.7 101240 35
2010-05-28 06:31 51°14.009 2°55.503 6.2 320 12.6 101240 35
2010-05-28 06:32 51°14.159 2°55.398 9 37 12.6 101240 35
2010-05-28 06:33 51°14.275 2°55.295 6.4 39 12.6 101240 36
2010-05-28 06:34 51°14.34 2°55.224 7.7 34 12.5 101230 36
2010-05-28 06:35 51°14.417 2°55.167 7.7 36 12.4 101230 36
2010-05-28 06:36 51°14.558 2°55.028 11.5 318 12.4 101220 35
2010-05-28 06:37 51°14.738 2°54.844 10.2 39 12.4 101210 36
2010-05-28 06:38 51°14.915 2°54.641 11.8 318 12.3 101220 35
2010-05-28 06:39 51°15.084 2°54.424 10.6 316 12.4 101220 37
2010-05-28 06:40 51°15.257 2°54.208 12.3 317 12.4 101220 37
2010-05-28 06:41 51°15.429 2°53.983 12 317 12.4 101210 36
2010-05-28 06:42 51°15.602 2°53.757 11.4 317 12.3 101210 36
2010-05-28 06:43 51°15.773 2°53.529 11.8 316 12.3 101220 37
2010-05-28 06:44 51°15.957 2°53.337 11.9 315 12.3 101210 36
2010-05-28 06:45 51°16.151 2°53.186 11.2 317 12.2 101220 37
2010-05-28 06:46 51°16.345 2°53.037 10.9 34 12.2 101210 37
2010-05-28 06:47 51°16.538 2°52.887 11.3 37 12.1 101210 36
2010-05-28 06:48 51°16.733 2°52.749 11.7 34 12.1 101220 36
2010-05-28 06:49 51°16.923 2°52.618 9.8 315 12.1 101230 37
2010-05-28 06:50 51°17.122 2°52.554 9.5 36 12.1 101230 36
2010-05-28 06:51 51°17.313 2°52.591 8.6 240 12.1 101230 36
2010-05-28 06:52 51°17.466 2°52.737 7.8 244 12.1 101250 36
2010-05-28 06:53 51°17.606 2°52.904 5.6 251 12.1 101250 36
2010-05-28 06:54 51°17.699 2°53.011 6.4 247 12.3 101240 38
2010-05-28 06:55 51°17.759 2°53.048 7.7 253 12.4 101240 37
2010-05-28 06:56 51°17.802 2°53.069 6.6 250 12.5 101240 36
2010-05-28 06:57 51°17.842 2°53.083 7.5 251 12.5 101250 35
2010-05-28 06:58 51°17.909 2°53.165 7 251 12.5 101250 37
2010-05-28 06:59 51°17.962 2°53.196 7.9 252 12.5 101250 36
2010-05-28 07:00 51°17.961 2°53.19 6.4 248 12.6 101260 36
2010-05-28 07:01 51°17.954 2°53.179 5.5 248 12.6 101250 36
2010-05-28 07:02 51°17.944 2°53.169 5.1 244 12.6 101250 37
2010-05-28 07:03 51°17.93 2°53.16 5.6 250 12.6 101250 35
2010-05-28 07:04 51°17.916 2°53.152 5.6 251 12.6 101250 38
2010-05-28 07:05 51°17.9 2°53.144 6.7 251 12.7 101260 37
2010-05-28 07:06 51°17.9 2°53.139 6.5 258 12.7 101250 37
2010-05-28 07:07 51°17.918 2°53.238 0.5 34 12.6 101260 37
2010-05-28 07:08 51°17.875 2°53.448 0.6 35 12.6 101270 35
2010-05-28 07:09 51°17.839 2°53.634 2.9 30 12.8 101270 35
2010-05-28 07:10 51°17.842 2°53.713 5.5 270 12.8 101260 36
2010-05-28 07:11 51°17.829 2°53.713 4.3 267 12.6 101260 38
2010-05-28 07:12 51°17.815 2°53.708 4.7 263 12.5 101270 37
2010-05-28 07:13 51°17.815 2°53.706 6.9 258 12.5 101260 37
2010-05-28 07:14 51°17.815 2°53.701 5.8 250 12.6 101270 38
2010-05-28 07:15 51°17.817 2°53.698 5.9 254 12.6 101270 37
2010-05-28 07:16 51°17.82 2°53.694 6.8 259 12.7 101270 36
2010-05-28 07:17 51°17.821 2°53.692 6.7 255 12.7 101270 35
2010-05-28 07:18 51°17.821 2°53.691 6.8 256 12.8 101280 37
2010-05-28 07:19 51°17.821 2°53.691 6.8 251 12.8 101280 36
2010-05-28 07:20 51°17.823 2°53.691 6.5 254 12.8 101280 37
2010-05-28 07:21 51°17.823 2°53.691 7 259 12.8 101270 36
2010-05-28 07:22 51°17.823 2°53.69 7.9 256 12.8 101280 35
2010-05-28 07:23 51°17.823 2°53.69 7.8 260 12.7 101280 36
2010-05-28 07:24 51°17.824 2°53.69 8.8 258 12.7 101280 36
2010-05-28 07:25 51°17.823 2°53.69 7.7 257 12.7 101280 36
2010-05-28 07:26 51°17.823 2°53.69 7.6 259 12.7 101290 37
2010-05-28 07:27 51°17.823 2°53.69 6.8 257 12.7 101290 37
2010-05-28 07:28 51°17.823 2°53.689 7 259 12.8 101300 36
2010-05-28 07:29 51°17.823 2°53.69 8.1 258 12.7 101290 36
2010-05-28 07:30 51°17.824 2°53.689 8.7 258 12.6 101290 36
2010-05-28 07:31 51°17.825 2°53.69 6.6 260 12.6 101290 36
2010-05-28 07:32 51°17.825 2°53.689 8.8 260 12.5 101300 34
2010-05-28 07:33 51°17.825 2°53.688 7.3 257 12.5 101300 37
2010-05-28 07:34 51°17.826 2°53.688 6.9 259 12.6 101300 36
2010-05-28 07:35 51°17.826 2°53.687 7 260 12.6 101300 36
2010-05-28 07:36 51°17.825 2°53.688 8 254 12.5 101300 37
2010-05-28 07:37 51°17.825 2°53.688 7 261 12.5 101300 37
2010-05-28 07:38 51°17.826 2°53.688 6 257 12.6 101300 35
2010-05-28 07:39 51°17.826 2°53.687 7.1 257 12.5 101310 37
2010-05-28 07:40 51°17.825 2°53.687 6.4 260 12.6 101310 36
2010-05-28 07:41 51°17.825 2°53.687 5.5 263 12.6 101310 36
2010-05-28 07:42 51°17.824 2°53.688 6 261 12.5 101320 35
2010-05-28 07:43 51°17.825 2°53.688 6.5 261 12.4 101320 36
2010-05-28 07:44 51°17.826 2°53.688 5.6 263 12.4 101320 36
2010-05-28 07:45 51°17.826 2°53.688 5.6 261 12.4 101320 36
2010-05-28 07:46 51°17.827 2°53.687 5.1 260 12.4 101330 37
2010-05-28 07:47 51°17.827 2°53.686 6.9 258 12.5 101320 37
2010-05-28 07:48 51°17.827 2°53.687 4.3 266 12.5 101320 35
2010-05-28 07:49 51°17.827 2°53.687 5.7 263 12.4 101320 37
2010-05-28 07:50 51°17.828 2°53.687 5.5 263 12.4 101330 36
2010-05-28 07:51 51°17.827 2°53.686 5.9 260 12.4 101330 36
2010-05-28 07:52 51°17.826 2°53.686 4 262 12.5 101320 36
2010-05-28 07:53 51°17.825 2°53.686 4.9 263 12.5 101330 37
2010-05-28 07:54 51°17.826 2°53.686 4.9 266 12.4 101320 37
2010-05-28 07:55 51°17.824 2°53.687 4.6 264 12.3 101320 35
2010-05-28 07:56 51°17.824 2°53.686 4.6 264 12.2 101330 37
2010-05-28 07:57 51°17.824 2°53.686 4.8 263 12.3 101330 37
2010-05-28 07:58 51°17.824 2°53.687 4.2 262 12.3 101330 35
2010-05-28 07:59 51°17.823 2°53.686 3.9 264 12.4 101330 36
2010-05-28 08:00 51°17.823 2°53.687 6 267 12.4 101330 36
2010-05-28 08:01 51°17.822 2°53.687 4.3 264 12.3 101330 37
2010-05-28 08:02 51°17.824 2°53.686 5.3 267 12.3 101330 36
2010-05-28 08:03 51°17.826 2°53.685 4.7 266 12.3 101330 36
2010-05-28 08:04 51°17.825 2°53.686 4.8 263 12.3 101330 36
2010-05-28 08:05 51°17.827 2°53.684 4.8 267 12.3 101340 36
2010-05-28 08:06 51°17.827 2°53.685 3.7 263 12.2 101330 37
2010-05-28 08:07 51°17.826 2°53.685 5.9 266 12.2 101340 37
2010-05-28 08:08 51°17.827 2°53.685 5.1 263 12.2 101340 36
2010-05-28 08:09 51°17.828 2°53.684 5.6 270 12.1 101340 36
2010-05-28 08:10 51°17.828 2°53.685 5.1 267 12.1 101340 36
2010-05-28 08:11 51°17.829 2°53.684 6.3 269 12.1 101330 36
2010-05-28 08:12 51°17.828 2°53.685 4.9 264 12.2 101340 38
2010-05-28 08:13 51°17.827 2°53.685 6.4 269 12.2 101330 36
2010-05-28 08:14 51°17.826 2°53.685 5.4 268 12.2 101340 37
2010-05-28 08:15 51°17.824 2°53.685 4 266 12.2 101340 36
2010-05-28 08:16 51°17.825 2°53.685 5.6 270 12.2 101350 38
2010-05-28 08:17 51°17.826 2°53.685 5.7 268 12.2 101350 38
2010-05-28 08:18 51°17.827 2°53.684 5 268 12.1 101350 36
2010-05-28 08:19 51°17.827 2°53.685 5.5 267 12.1 101350 36
2010-05-28 08:20 51°17.829 2°53.683 4.6 266 12.1 101360 37
2010-05-28 08:21 51°17.828 2°53.685 4.7 41 12.2 101360 39
2010-05-28 08:22 51°17.829 2°53.685 5.4 269 12.2 101350 38
2010-05-28 08:23 51°17.829 2°53.684 5.8 266 12.2 101350 39
2010-05-28 08:24 51°17.833 2°53.682 5.9 34 12.2 101350 37
2010-05-28 08:25 51°17.834 2°53.681 5.3 34 12 101350 35
2010-05-28 08:26 51°17.831 2°53.684 5.2 267 12.1 101350 37
2010-05-28 08:27 51°17.83 2°53.683 5.5 267 12.2 101360 37
2010-05-28 08:28 51°17.83 2°53.684 6.1 36 12.2 101360 37
2010-05-28 08:29 51°17.829 2°53.684 5.4 268 12.1 101360 36
2010-05-28 08:30 51°17.829 2°53.685 6 269 12.1 101360 39
2010-05-28 08:31 51°17.83 2°53.685 5.7 268 12 101360 35
2010-05-28 08:32 51°17.83 2°53.684 4.7 263 12.2 101360 38
2010-05-28 08:33 51°17.83 2°53.684 6.1 268 12.1 101370 37
2010-05-28 08:34 51°17.831 2°53.684 5.9 265 12.1 101360 36
2010-05-28 08:35 51°17.832 2°53.684 6.3 266 12.2 101370 36
2010-05-28 08:36 51°17.833 2°53.685 6.3 269 12.1 101360 36
2010-05-28 08:37 51°17.832 2°53.684 4.8 267 12.1 101370 35
2010-05-28 08:38 51°17.83 2°53.684 5.2 270 12.2 101370 35
2010-05-28 08:39 51°17.829 2°53.685 5 266 12.2 101370 37
2010-05-28 08:40 51°17.829 2°53.685 4.9 264 12.1 101370 34
2010-05-28 08:41 51°17.829 2°53.685 5.3 266 12.2 101370 36
2010-05-28 08:42 51°17.828 2°53.685 5.3 268 12.2 101370 36
2010-05-28 08:43 51°17.829 2°53.685 6.1 269 12.2 101370 35
2010-05-28 08:44 51°17.831 2°53.684 6.5 269 12.2 101380 36
2010-05-28 08:45 51°17.831 2°53.684 4.3 263 12.2 101370 35
2010-05-28 08:46 51°17.83 2°53.685 4.5 266 12.2 101370 35
2010-05-28 08:47 51°17.829 2°53.684 6 35 12.3 101380 37
2010-05-28 08:48 51°17.829 2°53.684 4.3 270 12.3 101380 36
2010-05-28 08:49 51°17.829 2°53.684 5.2 270 12.3 101380 37
2010-05-28 08:50 51°17.829 2°53.685 5.5 268 12.2 101370 37
2010-05-28 08:51 51°17.829 2°53.684 4.5 261 12.2 101380 36
2010-05-28 08:52 51°17.829 2°53.685 4.5 266 12.2 101380 36
2010-05-28 08:53 51°17.828 2°53.685 5.2 263 12.1 101380 35
2010-05-28 08:54 51°17.828 2°53.686 5.4 268 12.1 101380 37
2010-05-28 08:55 51°17.828 2°53.686 5.6 266 12.1 101380 37
2010-05-28 08:56 51°17.828 2°53.686 5.7 266 12.1 101380 36
2010-05-28 08:57 51°17.829 2°53.685 5 264 12.1 101390 37
2010-05-28 08:58 51°17.829 2°53.685 4.3 267 12.1 101390 36
2010-05-28 08:59 51°17.829 2°53.685 5.1 265 12.1 101390 37
2010-05-28 09:00 51°17.828 2°53.686 4.1 263 12.1 101390 36
2010-05-28 09:01 51°17.828 2°53.685 4 263 12.1 101390 36
2010-05-28 09:02 51°17.827 2°53.687 5.5 262 12.1 101400 37
2010-05-28 09:03 51°17.826 2°53.687 4.5 263 12.1 101400 36
2010-05-28 09:04 51°17.826 2°53.687 5 263 12.1 101400 38
2010-05-28 09:05 51°17.826 2°53.687 4.4 264 12.1 101390 37
2010-05-28 09:06 51°17.826 2°53.687 5.6 262 12.2 101390 37
2010-05-28 09:07 51°17.826 2°53.686 5.8 260 12.1 101400 37
2010-05-28 09:08 51°17.827 2°53.686 4.4 267 12.2 101400 36
2010-05-28 09:09 51°17.828 2°53.686 6.1 260 12.2 101400 37
2010-05-28 09:10 51°17.829 2°53.686 5 264 12.2 101400 36
2010-05-28 09:11 51°17.829 2°53.686 5.3 266 12.1 101410 37
2010-05-28 09:12 51°17.828 2°53.686 5.9 261 12.1 101400 39
2010-05-28 09:13 51°17.828 2°53.686 5.8 261 12.1 101410 36
2010-05-28 09:14 51°17.827 2°53.686 4.6 264 12.1 101410 38
2010-05-28 09:15 51°17.828 2°53.687 5.1 263 12.1 101410 37
2010-05-28 09:16 51°17.828 2°53.686 5.1 260 12 101400 37
2010-05-28 09:17 51°17.829 2°53.686 5.6 263 12 101410 37
2010-05-28 09:18 51°17.829 2°53.685 5.4 268 12 101410 37
2010-05-28 09:19 51°17.83 2°53.686 5.1 265 12 101410 37
2010-05-28 09:20 51°17.831 2°53.686 4.5 263 11.9 101400 38
2010-05-28 09:21 51°17.83 2°53.685 4.9 267 11.9 101400 37
2010-05-28 09:22 51°17.829 2°53.685 4.2 265 12 101410 37
2010-05-28 09:23 51°17.828 2°53.685 5 268 12 101410 37
2010-05-28 09:24 51°17.828 2°53.687 5 263 12 101410 37
2010-05-28 09:25 51°17.827 2°53.687 5 265 11.9 101410 38
2010-05-28 09:26 51°17.827 2°53.687 3.6 265 11.9 101420 38
2010-05-28 09:27 51°17.827 2°53.687 4.6 267 12.1 101420 39
2010-05-28 09:28 51°17.828 2°53.689 3.7 264 12.1 101410 37
2010-05-28 09:29 51°17.828 2°53.688 4.7 264 12.1 101420 39
2010-05-28 09:30 51°17.828 2°53.688 4 267 12.1 101420 38
2010-05-28 09:31 51°17.828 2°53.688 4.4 265 12 101420 37
2010-05-28 09:32 51°17.826 2°53.689 5 262 12 101430 37
2010-05-28 09:33 51°17.826 2°53.69 5.6 261 12 101410 38
2010-05-28 09:34 51°17.825 2°53.69 5 263 12 101420 37
2010-05-28 09:35 51°17.825 2°53.69 5.7 261 12 101420 37
2010-05-28 09:36 51°17.825 2°53.69 5.5 261 12.1 101420 37
2010-05-28 09:37 51°17.825 2°53.689 8.4 256 12.2 101420 38
2010-05-28 09:38 51°17.826 2°53.69 7.4 257 12.2 101420 38
2010-05-28 09:39 51°17.826 2°53.689 5.4 254 12.3 101420 37
2010-05-28 09:40 51°17.826 2°53.689 6.6 260 12.4 101420 38
2010-05-28 09:41 51°17.826 2°53.69 5.1 262 12.3 101420 37
2010-05-28 09:42 51°17.826 2°53.691 6 260 12.3 101420 39
2010-05-28 09:43 51°17.825 2°53.691 7.1 258 12.3 101410 37
2010-05-28 09:44 51°17.824 2°53.691 7 260 12.3 101420 39
2010-05-28 09:45 51°17.823 2°53.693 6.9 256 12.3 101410 38
2010-05-28 09:46 51°17.822 2°53.693 6.4 258 12.3 101420 38
2010-05-28 09:47 51°17.823 2°53.693 7.4 256 12.3 101410 38
2010-05-28 09:48 51°17.822 2°53.693 6.8 255 12.3 101420 37
2010-05-28 09:49 51°17.823 2°53.693 6.2 254 12.4 101410 38
2010-05-28 09:50 51°17.824 2°53.692 6.6 256 12.4 101420 38
2010-05-28 09:51 51°17.824 2°53.692 5.8 251 12.4 101420 37
2010-05-28 09:52 51°17.824 2°53.692 5.8 253 12.5 101420 38
2010-05-28 09:53 51°17.824 2°53.693 6.8 254 12.5 101420 37
2010-05-28 09:54 51°17.823 2°53.694 6.2 252 12.5 101420 37
2010-05-28 09:55 51°17.823 2°53.694 6.6 262 12.6 101420 38
2010-05-28 09:56 51°17.823 2°53.694 6.7 255 12.5 101430 38
2010-05-28 09:57 51°17.822 2°53.695 7.2 258 12.5 101420 37
2010-05-28 09:58 51°17.821 2°53.697 6.2 254 12.5 101430 38
2010-05-28 09:59 51°17.82 2°53.698 5.3 253 12.5 101430 37
2010-05-28 10:00 51°17.82 2°53.699 6.6 251 12.6 101420 39
2010-05-28 10:01 51°17.819 2°53.701 7.7 259 12.6 101430 37
2010-05-28 10:02 51°17.819 2°53.703 7.9 257 12.6 101430 37
2010-05-28 10:03 51°17.819 2°53.703 7.3 252 12.6 101420 37
2010-05-28 10:04 51°17.82 2°53.703 6.4 255 12.6 101430 38
2010-05-28 10:05 51°17.819 2°53.704 6.7 249 12.6 101430 37
2010-05-28 10:06 51°17.82 2°53.704 6.3 246 12.6 101430 37
2010-05-28 10:07 51°17.819 2°53.703 6.2 246 12.6 101420 39
2010-05-28 10:08 51°17.819 2°53.703 6.1 254 12.6 101430 37
2010-05-28 10:09 51°17.818 2°53.705 6.6 252 12.6 101430 39
2010-05-28 10:10 51°17.818 2°53.706 6.2 251 12.6 101430 37
2010-05-28 10:11 51°17.817 2°53.708 6 246 12.6 101430 37
2010-05-28 10:12 51°17.817 2°53.709 5.8 249 12.6 101440 39
2010-05-28 10:13 51°17.818 2°53.709 6.5 251 12.6 101440 39
2010-05-28 10:14 51°17.817 2°53.712 5.8 247 12.6 101430 39
2010-05-28 10:15 51°17.816 2°53.715 6.2 250 12.6 101430 37
2010-05-28 10:16 51°17.816 2°53.718 6.8 251 12.6 101430 39
2010-05-28 10:17 51°17.818 2°53.721 6.9 248 12.7 101430 39
2010-05-28 10:18 51°17.817 2°53.723 6 250 12.6 101430 38
2010-05-28 10:19 51°17.817 2°53.726 6.3 241 12.6 101430 38
2010-05-28 10:20 51°17.819 2°53.729 6.2 245 12.6 101430 37
2010-05-28 10:21 51°17.819 2°53.731 6.5 247 12.7 101440 38
2010-05-28 10:22 51°17.82 2°53.733 6.7 247 12.7 101440 38
2010-05-28 10:23 51°17.82 2°53.734 6 244 12.8 101440 39
2010-05-28 10:24 51°17.82 2°53.739 6.1 242 12.7 101440 37
2010-05-28 10:25 51°17.82 2°53.743 7.1 238 12.7 101440 38
2010-05-28 10:26 51°17.822 2°53.747 7 236 12.7 101450 37
2010-05-28 10:27 51°17.824 2°53.75 6.2 31 12.6 101440 38
2010-05-28 10:28 51°17.825 2°53.752 5.8 32 12.6 101440 38
2010-05-28 10:29 51°17.825 2°53.752 5.8 238 12.6 101450 38
2010-05-28 10:30 51°17.825 2°53.757 6.3 238 12.6 101450 39
2010-05-28 10:31 51°17.826 2°53.761 6 235 12.6 101450 39
2010-05-28 10:32 51°17.827 2°53.761 5.9 235 12.6 101450 37
2010-05-28 10:33 51°17.829 2°53.763 5.1 33 12.5 101450 38
2010-05-28 10:34 51°17.831 2°53.764 5.6 34 12.5 101460 37
2010-05-28 10:35 51°17.831 2°53.766 5.6 31 12.5 101460 38
2010-05-28 10:36 51°17.833 2°53.767 5.9 40 12.4 101450 37
2010-05-28 10:37 51°17.834 2°53.767 5.7 317 12.3 101450 37
2010-05-28 10:38 51°17.835 2°53.767 5.2 321 12.3 101460 37
2010-05-28 10:39 51°17.825 2°53.776 5.8 327 12.4 101460 38
2010-05-28 10:41 51°17.819 2°53.778 5.7 283 12.3 101460 37
2010-05-28 10:42 51°17.771 2°53.816 6 277 12.4 101460 37
2010-05-28 10:43 51°17.772 2°53.817 6.1 278 12.4 101460 39
2010-05-28 10:44 51°17.775 2°53.816 5.5 284 12.4 101460 38
2010-05-28 10:45 51°17.778 2°53.814 5.3 284 12.5 101460 39
2010-05-28 10:46 51°17.78 2°53.814 6.5 278 12.4 101460 37
2010-05-28 10:47 51°17.784 2°53.81 6.2 278 12.4 101460 39
2010-05-28 10:48 51°17.788 2°53.81 5.4 283 12.3 101470 37
2010-05-28 10:49 51°17.792 2°53.807 5.2 283 12.3 101470 37
2010-05-28 10:50 51°17.795 2°53.806 5.8 282 12.3 101470 37
2010-05-28 10:51 51°17.798 2°53.803 5.5 283 12.3 101470 39
2010-05-28 10:52 51°17.841 2°53.766 6 285 12.3 101470 37
2010-05-28 10:53 51°17.841 2°53.765 6 283 12.3 101470 38
2010-05-28 10:54 51°17.842 2°53.767 6 282 12.2 101470 37
2010-05-28 10:55 51°17.845 2°53.766 5.7 278 12.3 101470 38
2010-05-28 10:56 51°17.845 2°53.767 5.6 279 12.3 101470 37
2010-05-28 10:57 51°17.845 2°53.768 6.2 284 12.2 101460 37
2010-05-28 10:58 51°17.844 2°53.767 5.6 281 12.2 101460 38
2010-05-28 10:59 51°17.843 2°53.767 5.8 278 12.2 101470 38
2010-05-28 11:00 51°17.842 2°53.768 6 279 12.3 101470 37
2010-05-28 11:01 51°17.843 2°53.768 5.6 285 12.2 101470 37
2010-05-28 11:02 51°17.845 2°53.767 5.3 279 12.3 101470 39
2010-05-28 11:03 51°17.846 2°53.767 6 283 12.4 101470 38
2010-05-28 11:04 51°17.846 2°53.768 5 284 12.3 101470 38
2010-05-28 11:05 51°17.846 2°53.768 6.3 284 12.4 101480 38
2010-05-28 11:06 51°17.845 2°53.769 5.7 278 12.2 101470 38
2010-05-28 11:07 51°17.843 2°53.769 5.9 284 12 101470 36
2010-05-28 11:08 51°17.842 2°53.769 5.9 285 12 101470 36
2010-05-28 11:09 51°17.842 2°53.769 5.8 281 11.9 101470 36
2010-05-28 11:10 51°17.843 2°53.769 5.2 282 12 101470 37
2010-05-28 11:11 51°17.844 2°53.77 5.8 282 12.1 101470 37
2010-05-28 11:12 51°17.847 2°53.768 5.5 280 12.2 101470 37
2010-05-28 11:13 51°17.849 2°53.768 5.8 283 12.2 101480 38
2010-05-28 11:14 51°17.848 2°53.769 5.5 276 12.1 101480 36
2010-05-28 11:15 51°17.848 2°53.769 6 350 12 101480 37
2010-05-28 11:16 51°17.847 2°53.769 5.1 277 12 101480 37
2010-05-28 11:17 51°17.847 2°53.769 5.2 351 12 101480 37
2010-05-28 11:18 51°17.848 2°53.769 5.2 278 12.1 101480 37
2010-05-28 11:19 51°17.849 2°53.769 5.5 284 11.9 101480 38
2010-05-28 11:20 51°17.85 2°53.769 5.2 348 12 101480 37
2010-05-28 11:21 51°17.851 2°53.768 5.5 351 11.9 101480 36
2010-05-28 11:22 51°17.849 2°53.769 5.7 279 11.9 101480 36
2010-05-28 11:23 51°17.849 2°53.77 5.5 350 11.9 101480 37
2010-05-28 11:24 51°17.849 2°53.77 5.9 353 11.9 101480 36
2010-05-28 11:25 51°17.848 2°53.77 5.5 277 11.8 101480 37
2010-05-28 11:26 51°17.849 2°53.77 5.8 351 11.8 101490 36
2010-05-28 11:27 51°17.85 2°53.768 5.6 277 11.9 101480 37
2010-05-28 11:28 51°17.85 2°53.769 5.8 352 11.9 101480 38
2010-05-28 11:29 51°17.849 2°53.771 5.6 352 11.9 101480 37
2010-05-28 11:30 51°17.85 2°53.769 5.4 351 11.8 101490 37
2010-05-28 11:31 51°17.85 2°53.77 5.5 350 11.8 101480 37
2010-05-28 11:32 51°17.849 2°53.77 4.7 348 11.8 101480 36
2010-05-28 11:33 51°17.849 2°53.771 5.5 351 11.9 101480 36
2010-05-28 11:34 51°17.85 2°53.771 5.6 346 11.9 101480 36
2010-05-28 11:35 51°17.852 2°53.77 5.5 351 11.9 101490 37
2010-05-28 11:36 51°17.853 2°53.767 5.4 278 12 101480 36
2010-05-28 11:37 51°17.853 2°53.766 5.7 351 11.9 101480 36
2010-05-28 11:38 51°17.855 2°53.761 5.5 350 11.9 101480 37
2010-05-28 11:39 51°17.855 2°53.761 5.9 355 11.9 101480 37
2010-05-28 11:40 51°17.856 2°53.759 5.9 354 11.9 101480 36
2010-05-28 11:41 51°17.857 2°53.756 5.5 355 11.9 101490 36
2010-05-28 11:42 51°17.859 2°53.754 5.4 355 11.9 101480 36
2010-05-28 11:43 51°17.861 2°53.751 5.6 359 12 101490 37
2010-05-28 11:44 51°17.862 2°53.747 5.6 353 11.9 101480 36
2010-05-28 11:45 51°17.863 2°53.744 5.7 349 11.9 101490 36
2010-05-28 11:46 51°17.865 2°53.738 4.8 352 11.9 101490 36
2010-05-28 11:47 51°17.867 2°53.737 5.4 356 12 101490 38
2010-05-28 11:48 51°17.872 2°53.724 5.6 350 12 101490 37
2010-05-28 11:49 51°17.874 2°53.72 5.4 356 11.9 101490 37
2010-05-28 11:50 51°17.876 2°53.71 5.1 348 11.9 101490 37
2010-05-28 11:51 51°17.879 2°53.708 5.3 353 11.9 101490 38
2010-05-28 11:52 51°17.88 2°53.706 6.1 354 11.9 101480 36
2010-05-28 11:53 51°17.879 2°53.71 5.7 353 11.9 101490 38
2010-05-28 11:54 51°17.879 2°53.712 5 359 11.9 101490 36
2010-05-28 11:55 51°17.836 2°53.836 5.4 356 12 101490 37
2010-05-28 11:56 51°17.856 2°53.765 6.3 356 12 101500 37
2010-05-28 11:57 51°17.856 2°53.765 5.9 356 11.9 101490 38
2010-05-28 11:58 51°17.856 2°53.765 5.5 357 11.9 101490 36
2010-05-28 11:59 51°17.856 2°53.765 5.6 359 11.9 101490 36
2010-05-28 12:00 51°17.856 2°53.765 5.2 359 12 101500 38
2010-05-28 12:01 51°17.855 2°53.766 5.7 359 11.9 101490 37
2010-05-28 12:02 51°17.856 2°53.764 5.2 358 12 101500 37
2010-05-28 12:03 51°17.856 2°53.765 5 358 11.9 101500 36
2010-05-28 12:04 51°17.857 2°53.763 4.8 355 11.9 101500 37
2010-05-28 12:05 51°17.858 2°53.763 5.4 351 11.9 101500 37
2010-05-28 12:06 51°17.858 2°53.762 5.1 357 11.9 101500 36
2010-05-28 12:07 51°17.857 2°53.764 5 -999 12 101500 38
2010-05-28 12:08 51°17.857 2°53.764 5 357 12 101510 38
2010-05-28 12:09 51°17.857 2°53.764 4.8 359 11.9 101510 36
2010-05-28 12:10 51°17.857 2°53.764 5 355 12 101510 36
2010-05-28 12:11 51°17.858 2°53.764 5.1 355 11.9 101510 36
2010-05-28 12:12 51°17.857 2°53.764 4.9 356 11.9 101510 36
2010-05-28 12:13 51°17.857 2°53.764 5.2 355 12 101510 37
2010-05-28 12:14 51°17.857 2°53.764 5 357 12 101510 37
2010-05-28 12:15 51°17.857 2°53.763 4.7 356 12 101510 37
2010-05-28 12:16 51°17.859 2°53.762 4.7 353 12 101510 38
2010-05-28 12:17 51°17.859 2°53.762 5 358 12 101510 38
2010-05-28 12:18 51°17.859 2°53.761 5.3 353 11.9 101510 37
2010-05-28 12:19 51°17.858 2°53.763 5.1 354 11.9 101510 38
2010-05-28 12:20 51°17.856 2°53.763 4.3 359 11.9 101510 37
2010-05-28 12:21 51°17.856 2°53.764 4.2 357 11.9 101510 36
2010-05-28 12:22 51°17.857 2°53.763 4.6 352 12 101510 36
2010-05-28 12:23 51°17.858 2°53.763 4.3 352 12 101510 37
2010-05-28 12:24 51°17.859 2°53.762 4.9 278 12 101510 38
2010-05-28 12:25 51°17.859 2°53.763 4.5 352 12 101510 36
2010-05-28 12:26 51°17.859 2°53.762 4 353 12 101520 36
2010-05-28 12:27 51°17.859 2°53.762 4.7 353 12 101510 36
2010-05-28 12:28 51°17.859 2°53.761 4.4 353 12 101520 38
2010-05-28 12:29 51°17.86 2°53.761 4.7 353 11.9 101520 36
2010-05-28 12:30 51°17.859 2°53.761 4 355 12.1 101520 39
2010-05-28 12:31 51°17.859 2°53.762 4.9 278 12.1 101520 36
2010-05-28 12:32 51°17.859 2°53.762 4.7 277 12 101520 38
2010-05-28 12:33 51°17.86 2°53.761 4.4 352 12 101520 37
2010-05-28 12:34 51°17.86 2°53.76 4.2 278 12 101520 38
2010-05-28 12:35 51°17.86 2°53.76 4.2 278 12 101530 38
2010-05-28 12:36 51°17.858 2°53.763 4.7 351 12 101520 38
2010-05-28 12:37 51°17.857 2°53.763 3.6 278 12 101530 37
2010-05-28 12:38 51°17.856 2°53.763 4.9 348 12 101520 38
2010-05-28 12:39 51°17.857 2°53.764 4.7 353 12 101520 37
2010-05-28 12:40 51°17.858 2°53.762 4.5 349 12 101530 36
2010-05-28 12:41 51°17.859 2°53.762 4.2 350 12 101530 36
2010-05-28 12:42 51°17.858 2°53.762 3.9 353 12 101530 38
2010-05-28 12:43 51°17.858 2°53.762 4.2 355 12 101530 38
2010-05-28 12:44 51°17.858 2°53.762 4.2 355 12.1 101530 37
2010-05-28 12:45 51°17.859 2°53.761 4.4 353 12 101530 37
2010-05-28 12:46 51°17.859 2°53.76 3.9 353 12 101530 38
2010-05-28 12:47 51°17.859 2°53.761 3.8 351 12.1 101530 36
2010-05-28 12:48 51°17.86 2°53.76 3.9 356 12 101530 38
2010-05-28 12:49 51°17.861 2°53.76 3.4 281 12.1 101530 37
2010-05-28 12:50 51°17.861 2°53.759 4.1 348 12.1 101530 38
2010-05-28 12:51 51°17.861 2°53.759 3.4 350 12.1 101530 37
2010-05-28 12:52 51°17.861 2°53.758 3.6 353 12 101530 39
2010-05-28 12:53 51°17.861 2°53.758 4.3 284 12.1 101530 37
2010-05-28 12:54 51°17.861 2°53.759 4.2 279 12.1 101530 37
2010-05-28 12:55 51°17.86 2°53.759 3.6 278 12 101530 38
2010-05-28 12:56 51°17.86 2°53.76 3.7 350 12.1 101530 37
2010-05-28 12:57 51°17.86 2°53.759 3.9 353 12 101540 38
2010-05-28 12:58 51°17.86 2°53.759 3.8 353 12 101540 37
2010-05-28 12:59 51°17.859 2°53.76 3.5 351 12 101540 38
2010-05-28 13:00 51°17.859 2°53.757 3.3 282 12.2 101540 37
2010-05-28 13:01 51°17.86 2°53.76 4 278 12.2 101540 37
2010-05-28 13:02 51°17.859 2°53.759 3.7 279 12.1 101540 38
2010-05-28 13:03 51°17.859 2°53.762 3.4 353 12 101540 39
2010-05-28 13:04 51°17.859 2°53.761 3.4 278 12 101540 38
2010-05-28 13:05 51°17.861 2°53.759 3.4 282 12 101550 38
2010-05-28 13:06 51°17.862 2°53.757 3.6 351 12.1 101540 37
2010-05-28 13:07 51°17.862 2°53.758 3.7 351 12.1 101540 37
2010-05-28 13:08 51°17.861 2°53.759 3.4 348 12 101550 37
2010-05-28 13:09 51°17.86 2°53.759 3.5 350 12.1 101550 37
2010-05-28 13:10 51°17.86 2°53.76 4.1 279 12 101550 39
2010-05-28 13:11 51°17.86 2°53.76 3.9 278 12 101550 37
2010-05-28 13:12 51°17.86 2°53.759 3.3 281 12 101550 37
2010-05-28 13:13 51°17.862 2°53.758 3.7 283 12 101550 37
2010-05-28 13:14 51°17.862 2°53.758 3.3 277 12.1 101560 37
2010-05-28 13:15 51°17.862 2°53.756 3 277 12.1 101550 39
2010-05-28 13:16 51°17.863 2°53.756 3.4 346 12.2 101550 37
2010-05-28 13:17 51°17.862 2°53.757 3.4 353 12.2 101560 38
2010-05-28 13:18 51°17.862 2°53.757 3.2 355 12.1 101560 39
2010-05-28 13:19 51°17.862 2°53.757 2.8 277 12.1 101560 39
2010-05-28 13:20 51°17.862 2°53.755 3.5 349 12.1 101560 36
2010-05-28 13:21 51°17.856 2°53.745 3.5 350 12.1 101560 37
2010-05-28 13:22 51°17.851 2°53.735 3.8 351 12.1 101560 39
2010-05-28 13:23 51°17.846 2°53.73 3 351 12.1 101560 37
2010-05-28 13:24 51°17.843 2°53.724 3.3 277 12.1 101560 37
2010-05-28 13:25 51°17.814 2°53.663 5 279 12.1 101560 37
2010-05-28 13:26 51°17.75 2°53.55 5.5 285 12.1 101560 39
2010-05-28 13:27 51°17.672 2°53.371 6.5 281 12.3 101560 39
2010-05-28 13:28 51°17.575 2°53.166 6.4 285 12.5 101560 37
2010-05-28 13:29 51°17.465 2°52.945 7.5 284 12.6 101560 37
2010-05-28 13:30 51°17.34 2°52.719 7.6 282 12.7 101560 38
2010-05-28 13:31 51°17.175 2°52.556 6 278 12.8 101560 37
2010-05-28 13:32 51°16.977 2°52.621 4.9 281 12.7 101570 38
2010-05-28 13:33 51°16.792 2°52.801 4.6 278 12.6 101570 38
2010-05-28 13:34 51°16.595 2°52.938 5.5 277 12.6 101570 38
2010-05-28 13:35 51°16.399 2°53.071 5.1 279 12.6 101570 38
2010-05-28 13:36 51°16.201 2°53.208 4.8 285 12.5 101570 37
2010-05-28 13:37 51°16.003 2°53.344 4.7 283 12.5 101570 37
2010-05-28 13:38 51°15.813 2°53.516 4.8 283 12.5 101570 38
2010-05-28 13:39 51°15.627 2°53.713 3.9 277 12.6 101570 38
2010-05-28 13:40 51°15.451 2°53.935 3.8 278 12.6 101580 39
2010-05-28 13:41 51°15.277 2°54.161 3.9 283 12.7 101580 39
2010-05-28 13:42 51°15.102 2°54.386 3.1 276 12.8 101580 39
2010-05-28 13:43 51°14.933 2°54.617 3.5 280 12.8 101580 38
2010-05-28 13:44 51°14.751 2°54.808 3.9 280 12.9 101580 37
2010-05-28 13:45 51°14.568 2°55.011 4.3 277 13 101580 38
2010-05-28 13:46 51°14.382 2°55.198 3.5 277 13 101580 38
2010-05-28 13:47 51°14.213 2°55.352 2.9 347 12.9 101580 39
2010-05-28 13:50 51°14.138 2°55.418 1.9 19 13 101580 39
2010-05-28 13:51 51°13.746 2°55.725 1.4 -999 13 101580 38
2010-05-28 13:52 51°13.691 2°55.848 -999 -999 13.2 101580 38
2010-05-28 13:53 51°13.665 2°55.941 1.2 79 13.3 101580 38